Overseas Luzon — V7NE5 — position and weather

sailwx.info

Track history (hours):
 
Tides and Currents Weather Stations Pressure Air Temp Water Temp Dewpoint Dewpoint Depression Visibility Wind Speed Wind Dir Waves Ship Positions

Overseas Luzon

Last reported at 2016-Dec-09 02:30 UTC. Time now 2016-Dec-09 03:59 UTC.
Position N 32°21' W 119°23'.

Length 228 m; draft 10.7 m.

Type: Tanker. MMSI: 538002946.

Date/timePositionNaut miles runAvg speedWind from/ knotsBaromVisibWave heightAir tempDewpointWater temp
2016-Dec-09 02:30N 32°21' W 119°23'1413.4
2016-Dec-09 01:26N 32°09' W 119°13'3013.4
2016-Dec-08 23:10N 31°45' W 118°52'913.2
2016-Dec-08 22:30N 31°37' W 118°46'1212.9
2016-Dec-08 21:33N 31°27' W 118°40'1211.8
2016-Dec-08 20:33N 31°17' W 118°31'2 1.9
2016-Dec-08 19:32N 31°19' W 118°32'3 3.0
2016-Dec-08 18:33N 31°21' W 118°34'3 2.5
2016-Dec-08 17:32N 31°23' W 118°36'2 2.4
2016-Dec-08 16:33N 31°25' W 118°38'2 2.4
2016-Dec-08 15:32N 31°27' W 118°40'2 2.5
2016-Dec-08 14:33N 31°28' W 118°42'5 2.4
2016-Dec-08 12:24N 31°32' W 118°47'2 2.3
2016-Dec-08 11:19N 31°33' W 118°49'2 2.1
2016-Dec-08 10:14N 31°34' W 118°52'2 2.4
2016-Dec-08 09:31N 31°35' W 118°53'2 2.1
2016-Dec-08 08:30N 31°37' W 118°55'3 2.6
2016-Dec-08 07:15N 31°39' W 118°58'2 2.7
2016-Dec-08 06:33N 31°40' W 118°60'3 2.6
2016-Dec-08 05:21N 31°42' W 119°02'2 2.5
2016-Dec-08 04:27N 31°44' W 119°05'2 2.6
2016-Dec-08 03:33N 31°45' W 119°07'3 2.6
2016-Dec-08 02:33N 31°47' W 119°09'5 3.8
2016-Dec-08 01:19N 31°50' W 119°13'6 5.8
2016-Dec-08 00:20N 31°54' W 119°18'48 2.8
2016-Dec-07 07:20N 32°33' W 119°50'18414.2
2016-Dec-06 18:22N 35°13' W 121°41'1113.9
2016-Dec-06 17:33N 35°22' W 121°48'1414.1
2016-Dec-06 16:32N 35°35' W 121°57'11313.8
2016-Dec-06 08:23N 37°14' W 123°03'1213.9
2016-Dec-06 07:33N 37°25' W 123°08'1110.6
2016-Dec-06 06:33N 37°35' W 123°02'1413.4
2016-Dec-06 05:33N 37°42' W 122°48'1212.3
2016-Dec-06 04:33N 37°47' W 122°34'1010.3
2016-Dec-06 03:33N 37°46' W 122°21'0 0.1
2016-Dec-06 02:32N 37°46' W 122°21'0 0.0
2016-Dec-06 01:32N 37°46' W 122°21'0 0.1
2016-Dec-06 00:32N 37°46' W 122°21'0 0.2
2016-Dec-05 23:32N 37°46' W 122°21'0 0.1
2016-Dec-05 22:32N 37°46' W 122°21'0 0.0
2016-Dec-05 21:32N 37°46' W 122°21'0 0.0
2016-Dec-05 20:32N 37°46' W 122°21'0 0.0
2016-Dec-05 19:32N 37°46' W 122°21'0 0.2
2016-Dec-05 18:33N 37°46' W 122°21'0 0.1
2016-Dec-05 17:32N 37°46' W 122°21'0 0.0
2016-Dec-05 16:32N 37°46' W 122°21'0 0.0
2016-Dec-05 15:33N 37°46' W 122°21'0 0.1
2016-Dec-05 14:32N 37°46' W 122°21'1010.5
2016-Dec-05 13:33N 37°56' W 122°27'1211.7
2016-Dec-05 12:33N 38°04' W 122°16'0 0.3
2016-Dec-05 11:21N 38°03' W 122°16'0 0.0
2016-Dec-05 10:33N 38°03' W 122°16'0 0.0
2016-Dec-05 09:27N 38°03' W 122°16'0 0.0
2016-Dec-05 08:33N 38°03' W 122°16'0 0.0
2016-Dec-05 07:33N 38°03' W 122°16'0 0.0
2016-Dec-05 06:33N 38°03' W 122°16'0 0.0
2016-Dec-05 05:21N 38°03' W 122°16'0 0.0
2016-Dec-05 04:03N 38°03' W 122°16'0 0.0
2016-Dec-05 03:33N 38°03' W 122°16'0 0.0
2016-Dec-05 02:33N 38°03' W 122°16'0 0.0
2016-Dec-05 01:33N 38°03' W 122°16'0 0.0
2016-Dec-05 00:33N 38°03' W 122°16'0 0.0
2016-Dec-04 20:33N 38°03' W 122°16'0 0.0
2016-Dec-04 19:33N 38°03' W 122°16'0 0.0
2016-Dec-04 18:27N 38°03' W 122°16'0 0.0
2016-Dec-04 17:33N 38°03' W 122°16'0 0.0
2016-Dec-04 16:21N 38°03' W 122°16'0 0.0
2016-Dec-04 15:33N 38°03' W 122°16'0 0.0
2016-Dec-04 14:03N 38°03' W 122°16'0 0.0
2016-Dec-04 13:33N 38°03' W 122°16'0 0.0
2016-Dec-04 12:33N 38°03' W 122°16'0 0.0
2016-Dec-04 11:15N 38°03' W 122°16'0 0.0
2016-Dec-04 10:33N 38°03' W 122°16'0 0.0
2016-Dec-04 05:33N 38°03' W 122°16'0 0.0
2016-Dec-04 04:33N 38°03' W 122°16'0 0.0
2016-Dec-04 03:33N 38°03' W 122°16'0 0.0
2016-Dec-04 00:33N 38°03' W 122°16'0 0.3
2016-Dec-03 23:33N 38°04' W 122°16'8 7.6
2016-Dec-03 22:33N 38°00' W 122°25'1110.8
2016-Dec-03 21:33N 37°49' W 122°24'1212.2
2016-Dec-03 20:34N 37°46' W 122°39'10 9.9
2016-Dec-03 19:33N 37°39' W 122°49'1312.8
2016-Dec-03 18:34N 37°32' W 123°02'9 6.8
2016-Dec-03 17:16N 37°26' W 123°10'3 4.7
2016-Dec-03 16:33N 37°23' W 123°11'1 0.6
2016-Dec-03 15:33N 37°23' W 123°10'2 1.8
2016-Dec-03 14:33N 37°24' W 123°10'2 2.1
2016-Dec-03 13:33N 37°24' W 123°07'9 8.8
2016-Dec-03 12:32N 37°19' W 122°58'1212.7
2016-Dec-03 11:33N 37°07' W 122°53'1312.9
2016-Dec-03 10:33N 36°55' W 122°46'1513.0
2016-Dec-03 09:25N 36°42' W 122°38'1213.5
2016-Dec-03 08:34N 36°31' W 122°32'1413.6
2016-Dec-03 07:33N 36°19' W 122°25'1413.7
2016-Dec-03 06:33N 36°07' W 122°17'2412.0
2016-Dec-03 04:33N 35°47' W 122°01'316 7.7
2016-Dec-01 11:33N 31°39' W 118°06'9 2.9
2016-Dec-01 08:33N 31°44' W 118°14'3 2.9
2016-Dec-01 07:34N 31°45' W 118°17'3 3.1
2016-Dec-01 06:33N 31°47' W 118°20'3 3.0
2016-Dec-01 05:33N 31°49' W 118°22'3 2.8
2016-Dec-01 04:33N 31°51' W 118°25'4 3.6
2016-Dec-01 03:31N 31°54' W 118°28'6 6.0
2016-Dec-01 02:34N 31°56' W 118°34'7 6.6
2016-Dec-01 01:34N 31°59' W 118°41'6 6.2
2016-Dec-01 00:33N 32°02' W 118°48'5 4.8
2016-Nov-30 23:34N 32°04' W 118°53'2 1.6
2016-Nov-30 22:33N 32°04' W 118°55'3 2.8
2016-Nov-30 21:33N 32°06' W 118°57'1111.1
2016-Nov-30 20:32N 32°14' W 118°48'1514.7
2016-Nov-30 19:30N 32°24' W 118°35'1715.0
2016-Nov-30 18:22N 32°36' W 118°20'1214.5
2016-Nov-30 17:33N 32°45' W 118°11'1614.4
2016-Nov-30 16:25N 33°01' W 118°09'1011.6
2016-Nov-30 15:33N 33°11' W 118°07'1111.4
2016-Nov-30 14:33N 33°22' W 118°08'1211.9
2016-Nov-30 13:33N 33°33' W 118°12'10 9.0
2016-Nov-30 12:25N 33°44' W 118°11'3 0.3
2016-Nov-30 01:33N 33°46' W 118°13'0 0.0
2016-Nov-30 00:33N 33°46' W 118°13'0 0.0
2016-Nov-29 23:32N 33°46' W 118°13'0 0.0
2016-Nov-29 22:31N 33°46' W 118°13'0 0.0
2016-Nov-29 18:29N 33°46' W 118°13'0 0.0
2016-Nov-29 17:32N 33°46' W 118°13'0 0.0
2016-Nov-29 16:33N 33°46' W 118°13'0 0.0
2016-Nov-29 15:33N 33°46' W 118°13'0 0.0
2016-Nov-29 14:33N 33°46' W 118°13'0 0.0
2016-Nov-29 13:33N 33°46' W 118°13'0 0.0
2016-Nov-29 12:33N 33°46' W 118°13'  
Track history (hours):
 
Tides and Currents Weather Stations Pressure Air Temp Water Temp Dewpoint Dewpoint Depression Visibility Wind Speed Wind Dir Waves Ship Positions

Overseas Luzon

Last reported at 2016-Dec-09 02:30 UTC. Time now 2016-Dec-09 03:59 UTC.
Position N 32°21' W 119°23'.

Length 228 m; draft 10.7 m.

Type: Tanker. MMSI: 538002946.

Date/timePositionNaut miles runAvg speedWind from/ knotsBaromVisibWave heightAir tempDewpointWater temp
2016-Dec-09 02:30N 32°21' W 119°23'1413.4
2016-Dec-09 01:26N 32°09' W 119°13'3013.4
2016-Dec-08 23:10N 31°45' W 118°52'913.2
2016-Dec-08 22:30N 31°37' W 118°46'1212.9
2016-Dec-08 21:33N 31°27' W 118°40'1211.8
2016-Dec-08 20:33N 31°17' W 118°31'2 1.9
2016-Dec-08 19:32N 31°19' W 118°32'3 3.0
2016-Dec-08 18:33N 31°21' W 118°34'3 2.5
2016-Dec-08 17:32N 31°23' W 118°36'2 2.4
2016-Dec-08 16:33N 31°25' W 118°38'2 2.4
2016-Dec-08 15:32N 31°27' W 118°40'2 2.5
2016-Dec-08 14:33N 31°28' W 118°42'5 2.4
2016-Dec-08 12:24N 31°32' W 118°47'2 2.3
2016-Dec-08 11:19N 31°33' W 118°49'2 2.1
2016-Dec-08 10:14N 31°34' W 118°52'2 2.4
2016-Dec-08 09:31N 31°35' W 118°53'2 2.1
2016-Dec-08 08:30N 31°37' W 118°55'3 2.6
2016-Dec-08 07:15N 31°39' W 118°58'2 2.7
2016-Dec-08 06:33N 31°40' W 118°60'3 2.6
2016-Dec-08 05:21N 31°42' W 119°02'2 2.5
2016-Dec-08 04:27N 31°44' W 119°05'2 2.6
2016-Dec-08 03:33N 31°45' W 119°07'3 2.6
2016-Dec-08 02:33N 31°47' W 119°09'5 3.8
2016-Dec-08 01:19N 31°50' W 119°13'6 5.8
2016-Dec-08 00:20N 31°54' W 119°18'48 2.8
2016-Dec-07 07:20N 32°33' W 119°50'18414.2
2016-Dec-06 18:22N 35°13' W 121°41'1113.9
2016-Dec-06 17:33N 35°22' W 121°48'1414.1
2016-Dec-06 16:32N 35°35' W 121°57'11313.8
2016-Dec-06 08:23N 37°14' W 123°03'1213.9
2016-Dec-06 07:33N 37°25' W 123°08'1110.6
2016-Dec-06 06:33N 37°35' W 123°02'1413.4
2016-Dec-06 05:33N 37°42' W 122°48'1212.3
2016-Dec-06 04:33N 37°47' W 122°34'1010.3
2016-Dec-06 03:33N 37°46' W 122°21'0 0.1
2016-Dec-06 02:32N 37°46' W 122°21'0 0.0
2016-Dec-06 01:32N 37°46' W 122°21'0 0.1
2016-Dec-06 00:32N 37°46' W 122°21'0 0.2
2016-Dec-05 23:32N 37°46' W 122°21'0 0.1
2016-Dec-05 22:32N 37°46' W 122°21'0 0.0
2016-Dec-05 21:32N 37°46' W 122°21'0 0.0
2016-Dec-05 20:32N 37°46' W 122°21'0 0.0
2016-Dec-05 19:32N 37°46' W 122°21'0 0.2
2016-Dec-05 18:33N 37°46' W 122°21'0 0.1
2016-Dec-05 17:32N 37°46' W 122°21'0 0.0
2016-Dec-05 16:32N 37°46' W 122°21'0 0.0
2016-Dec-05 15:33N 37°46' W 122°21'0 0.1
2016-Dec-05 14:32N 37°46' W 122°21'1010.5
2016-Dec-05 13:33N 37°56' W 122°27'1211.7
2016-Dec-05 12:33N 38°04' W 122°16'0 0.3
2016-Dec-05 11:21N 38°03' W 122°16'0 0.0
2016-Dec-05 10:33N 38°03' W 122°16'0 0.0
2016-Dec-05 09:27N 38°03' W 122°16'0 0.0
2016-Dec-05 08:33N 38°03' W 122°16'0 0.0
2016-Dec-05 07:33N 38°03' W 122°16'0 0.0
2016-Dec-05 06:33N 38°03' W 122°16'0 0.0
2016-Dec-05 05:21N 38°03' W 122°16'0 0.0
2016-Dec-05 04:03N 38°03' W 122°16'0 0.0
2016-Dec-05 03:33N 38°03' W 122°16'0 0.0
2016-Dec-05 02:33N 38°03' W 122°16'0 0.0
2016-Dec-05 01:33N 38°03' W 122°16'0 0.0
2016-Dec-05 00:33N 38°03' W 122°16'0 0.0
2016-Dec-04 20:33N 38°03' W 122°16'0 0.0
2016-Dec-04 19:33N 38°03' W 122°16'0 0.0
2016-Dec-04 18:27N 38°03' W 122°16'0 0.0
2016-Dec-04 17:33N 38°03' W 122°16'0 0.0
2016-Dec-04 16:21N 38°03' W 122°16'0 0.0
2016-Dec-04 15:33N 38°03' W 122°16'0 0.0
2016-Dec-04 14:03N 38°03' W 122°16'0 0.0
2016-Dec-04 13:33N 38°03' W 122°16'0 0.0
2016-Dec-04 12:33N 38°03' W 122°16'0 0.0
2016-Dec-04 11:15N 38°03' W 122°16'0 0.0
2016-Dec-04 10:33N 38°03' W 122°16'0 0.0
2016-Dec-04 05:33N 38°03' W 122°16'0 0.0
2016-Dec-04 04:33N 38°03' W 122°16'0 0.0
2016-Dec-04 03:33N 38°03' W 122°16'0 0.0
2016-Dec-04 00:33N 38°03' W 122°16'0 0.3
2016-Dec-03 23:33N 38°04' W 122°16'8 7.6
2016-Dec-03 22:33N 38°00' W 122°25'1110.8
2016-Dec-03 21:33N 37°49' W 122°24'1212.2
2016-Dec-03 20:34N 37°46' W 122°39'10 9.9
2016-Dec-03 19:33N 37°39' W 122°49'1312.8
2016-Dec-03 18:34N 37°32' W 123°02'9 6.8
2016-Dec-03 17:16N 37°26' W 123°10'3 4.7
2016-Dec-03 16:33N 37°23' W 123°11'1 0.6
2016-Dec-03 15:33N 37°23' W 123°10'2 1.8
2016-Dec-03 14:33N 37°24' W 123°10'2 2.1
2016-Dec-03 13:33N 37°24' W 123°07'9 8.8
2016-Dec-03 12:32N 37°19' W 122°58'1212.7
2016-Dec-03 11:33N 37°07' W 122°53'1312.9
2016-Dec-03 10:33N 36°55' W 122°46'1513.0
2016-Dec-03 09:25N 36°42' W 122°38'1213.5
2016-Dec-03 08:34N 36°31' W 122°32'1413.6
2016-Dec-03 07:33N 36°19' W 122°25'1413.7
2016-Dec-03 06:33N 36°07' W 122°17'2412.0
2016-Dec-03 04:33N 35°47' W 122°01'316 7.7
2016-Dec-01 11:33N 31°39' W 118°06'9 2.9
2016-Dec-01 08:33N 31°44' W 118°14'3 2.9
2016-Dec-01 07:34N 31°45' W 118°17'3 3.1
2016-Dec-01 06:33N 31°47' W 118°20'3 3.0
2016-Dec-01 05:33N 31°49' W 118°22'3 2.8
2016-Dec-01 04:33N 31°51' W 118°25'4 3.6
2016-Dec-01 03:31N 31°54' W 118°28'6 6.0
2016-Dec-01 02:34N 31°56' W 118°34'7 6.6
2016-Dec-01 01:34N 31°59' W 118°41'6 6.2
2016-Dec-01 00:33N 32°02' W 118°48'5 4.8
2016-Nov-30 23:34N 32°04' W 118°53'2 1.6
2016-Nov-30 22:33N 32°04' W 118°55'3 2.8
2016-Nov-30 21:33N 32°06' W 118°57'1111.1
2016-Nov-30 20:32N 32°14' W 118°48'1514.7
2016-Nov-30 19:30N 32°24' W 118°35'1715.0
2016-Nov-30 18:22N 32°36' W 118°20'1214.5
2016-Nov-30 17:33N 32°45' W 118°11'1614.4
2016-Nov-30 16:25N 33°01' W 118°09'1011.6
2016-Nov-30 15:33N 33°11' W 118°07'1111.4
2016-Nov-30 14:33N 33°22' W 118°08'1211.9
2016-Nov-30 13:33N 33°33' W 118°12'10 9.0
2016-Nov-30 12:25N 33°44' W 118°11'3 0.3
2016-Nov-30 01:33N 33°46' W 118°13'0 0.0
2016-Nov-30 00:33N 33°46' W 118°13'0 0.0
2016-Nov-29 23:32N 33°46' W 118°13'0 0.0
2016-Nov-29 22:31N 33°46' W 118°13'0 0.0
2016-Nov-29 18:29N 33°46' W 118°13'0 0.0
2016-Nov-29 17:32N 33°46' W 118°13'0 0.0
2016-Nov-29 16:33N 33°46' W 118°13'0 0.0
2016-Nov-29 15:33N 33°46' W 118°13'0 0.0
2016-Nov-29 14:33N 33°46' W 118°13'0 0.0
2016-Nov-29 13:33N 33°46' W 118°13'0 0.0
2016-Nov-29 12:33N 33°46' W 118°13'  

Dump ship's entire track history